createdAt,value
2019-03-09T00:00:57.540Z,0
2019-03-09T00:02:07.472Z,0
2019-03-09T00:03:17.411Z,0
2019-03-09T00:04:27.422Z,0
2019-03-09T00:05:37.352Z,0
2019-03-09T00:06:47.282Z,0
2019-03-09T00:07:57.218Z,0
2019-03-09T00:09:07.158Z,0
2019-03-09T00:10:17.235Z,0
2019-03-09T00:11:27.165Z,0
2019-03-09T00:12:37.094Z,0
2019-03-09T00:13:48.293Z,0
2019-03-09T00:14:58.289Z,0
2019-03-09T00:16:08.438Z,0
2019-03-09T00:17:18.384Z,0
2019-03-09T00:18:28.356Z,0
2019-03-09T00:19:38.287Z,0
2019-03-09T00:20:48.222Z,0
2019-03-09T00:21:58.252Z,0
2019-03-09T00:23:08.179Z,0
2019-03-09T00:24:18.609Z,0
2019-03-09T00:25:29.365Z,0
2019-03-09T00:26:39.911Z,0
2019-03-09T00:27:50.099Z,0
2019-03-09T00:29:00.192Z,0
2019-03-09T00:30:10.133Z,0
2019-03-09T00:31:20.079Z,0
2019-03-09T00:32:29.765Z,0
2019-03-09T00:33:39.807Z,0
2019-03-09T00:34:49.730Z,0
2019-03-09T00:35:59.418Z,0
2019-03-09T00:37:09.356Z,0
2019-03-09T00:38:19.283Z,0
2019-03-09T00:39:29.230Z,0
2019-03-09T00:40:39.168Z,0
2019-03-09T00:41:49.135Z,0
2019-03-09T00:42:59.076Z,0
2019-03-09T00:44:09.020Z,0
2019-03-09T00:45:19.021Z,0
2019-03-09T00:46:28.967Z,0
2019-03-09T00:47:38.922Z,0
2019-03-09T00:48:48.880Z,0
2019-03-09T00:49:58.817Z,0
2019-03-09T00:51:08.856Z,0
2019-03-09T00:52:18.793Z,0
2019-03-09T00:53:28.750Z,0
2019-03-09T00:54:38.716Z,0
2019-03-09T00:55:48.632Z,0
2019-03-09T00:56:58.601Z,0
2019-03-09T00:58:08.533Z,0
2019-03-09T00:59:18.475Z,0
2019-03-09T01:00:28.386Z,0
2019-03-09T01:01:38.295Z,0
2019-03-09T01:02:48.011Z,0
2019-03-09T01:03:57.925Z,0
2019-03-09T01:05:07.835Z,0
2019-03-09T01:06:17.753Z,0
2019-03-09T01:07:27.729Z,0
2019-03-09T01:08:37.691Z,0
2019-03-09T01:09:47.603Z,0
2019-03-09T01:10:57.513Z,0
2019-03-09T01:12:07.440Z,0
2019-03-09T01:13:17.350Z,0
2019-03-09T01:14:27.112Z,0
2019-03-09T01:15:37.026Z,0
2019-03-09T01:16:46.952Z,0
2019-03-09T01:17:56.869Z,0
2019-03-09T01:19:06.778Z,0
2019-03-09T01:20:16.762Z,0
2019-03-09T01:21:26.685Z,0
2019-03-09T01:22:36.596Z,0
2019-03-09T01:23:46.513Z,0
2019-03-09T01:24:56.440Z,0
2019-03-09T01:26:06.453Z,0
2019-03-09T01:27:16.393Z,0
2019-03-09T01:28:26.326Z,0
2019-03-09T01:29:36.241Z,0
2019-03-09T01:30:46.149Z,0
2019-03-09T01:31:56.159Z,0
2019-03-09T01:33:06.092Z,0
2019-03-09T01:34:16.004Z,0
2019-03-09T01:35:25.916Z,0
2019-03-09T01:36:35.579Z,0
2019-03-09T01:37:45.544Z,0
2019-03-09T01:38:55.454Z,0
2019-03-09T01:40:05.362Z,0
2019-03-09T01:41:15.298Z,0
2019-03-09T01:42:25.226Z,0
2019-03-09T01:43:35.188Z,0
2019-03-09T01:44:45.098Z,0
2019-03-09T01:45:55.006Z,0
2019-03-09T01:47:04.923Z,0
2019-03-09T01:48:14.838Z,0
2019-03-09T01:49:24.900Z,0
2019-03-09T01:50:34.816Z,0
2019-03-09T01:51:44.732Z,0
2019-03-09T01:52:54.155Z,0
2019-03-09T01:54:04.078Z,0
2019-03-09T01:55:14.088Z,0
2019-03-09T01:56:24.004Z,0
2019-03-09T01:57:33.914Z,0
2019-03-09T01:58:43.835Z,0
2019-03-09T01:59:53.747Z,0
2019-03-09T02:01:03.765Z,0
2019-03-09T02:02:13.676Z,0
2019-03-09T02:03:23.597Z,0
2019-03-09T02:04:33.510Z,0
2019-03-09T02:05:43.416Z,0
2019-03-09T02:06:53.391Z,0
2019-03-09T02:08:03.299Z,0
2019-03-09T02:09:13.215Z,0
2019-03-09T02:10:23.127Z,0
2019-03-09T02:11:33.040Z,0
2019-03-09T02:12:43.052Z,0
2019-03-09T02:13:53.008Z,0
2019-03-09T02:15:02.922Z,0
2019-03-09T02:16:12.892Z,0
2019-03-09T02:17:22.803Z,0
2019-03-09T02:18:32.759Z,0
2019-03-09T02:19:42.674Z,0
2019-03-09T02:20:52.656Z,0
2019-03-09T02:22:02.577Z,0
2019-03-09T02:23:12.502Z,0
2019-03-09T02:24:22.522Z,0
2019-03-09T02:25:32.456Z,0
2019-03-09T02:26:42.392Z,0
2019-03-09T02:27:52.304Z,0
2019-03-09T02:29:03.548Z,0
2019-03-09T02:30:13.571Z,0
2019-03-09T02:31:23.498Z,0
2019-03-09T02:32:33.442Z,0
2019-03-09T02:33:43.378Z,0
2019-03-09T02:34:53.307Z,0
2019-03-09T02:36:03.294Z,0
2019-03-09T02:37:13.283Z,0
2019-03-09T02:38:23.215Z,0
2019-03-09T02:39:33.190Z,0
2019-03-09T02:40:43.156Z,0
2019-03-09T02:41:53.172Z,0
2019-03-09T02:43:03.112Z,0
2019-03-09T02:44:13.046Z,0
2019-03-09T02:45:23.051Z,0
2019-03-09T02:46:33.014Z,0
2019-03-09T02:47:42.499Z,0
2019-03-09T02:48:52.232Z,0
2019-03-09T02:50:03.403Z,0
2019-03-09T02:51:13.327Z,0
2019-03-09T02:52:23.260Z,0
2019-03-09T02:53:33.289Z,0
2019-03-09T02:54:43.283Z,0
2019-03-09T02:55:53.247Z,0
2019-03-09T02:57:03.225Z,0
2019-03-09T02:58:13.165Z,0
2019-03-09T02:59:23.202Z,0
2019-03-09T03:00:33.135Z,0
2019-03-09T03:01:43.094Z,0
2019-03-09T03:02:52.789Z,0
2019-03-09T03:04:02.725Z,0
2019-03-09T03:05:12.725Z,0
2019-03-09T03:06:22.663Z,0
2019-03-09T03:07:32.616Z,0
2019-03-09T03:08:42.549Z,0
2019-03-09T03:09:52.472Z,0
2019-03-09T03:11:02.518Z,0
2019-03-09T03:12:12.463Z,0
2019-03-09T03:13:22.397Z,0
2019-03-09T03:14:32.343Z,0
2019-03-09T03:15:42.434Z,0
2019-03-09T03:16:52.460Z,0
2019-03-09T03:18:02.409Z,0
2019-03-09T03:19:12.113Z,0
2019-03-09T03:20:22.082Z,0
2019-03-09T03:21:32.039Z,0
2019-03-09T03:22:42.027Z,0
2019-03-09T03:23:51.947Z,0
2019-03-09T03:25:01.623Z,0
2019-03-09T03:26:11.567Z,0
2019-03-09T03:27:21.509Z,0
2019-03-09T03:28:31.544Z,0
2019-03-09T03:29:41.470Z,0
2019-03-09T03:30:51.442Z,0
2019-03-09T03:32:00.962Z,0
2019-03-09T03:33:11.079Z,0
2019-03-09T03:34:21.229Z,0
2019-03-09T03:35:31.222Z,0
2019-03-09T03:36:41.164Z,0
2019-03-09T03:37:50.865Z,0
2019-03-09T03:39:00.810Z,0
2019-03-09T03:40:10.831Z,0
2019-03-09T03:41:20.790Z,0
2019-03-09T03:42:30.723Z,0
2019-03-09T03:43:40.685Z,0
2019-03-09T03:44:50.661Z,0
2019-03-09T03:46:00.658Z,0
2019-03-09T03:47:10.598Z,0
2019-03-09T03:48:20.530Z,0
2019-03-09T03:49:30.466Z,0
2019-03-09T03:50:40.394Z,0
2019-03-09T03:51:50.339Z,0
2019-03-09T03:53:00.453Z,0
2019-03-09T03:54:10.186Z,0
2019-03-09T03:55:20.168Z,0
2019-03-09T03:56:30.104Z,0
2019-03-09T03:57:40.053Z,0
2019-03-09T03:58:49.762Z,0
2019-03-09T03:59:59.703Z,0
2019-03-09T04:01:09.622Z,0
2019-03-09T04:02:19.652Z,0
2019-03-09T04:03:29.672Z,0
2019-03-09T04:04:39.618Z,0
2019-03-09T04:05:49.587Z,0
2019-03-09T04:06:59.610Z,0
2019-03-09T04:08:09.329Z,0
2019-03-09T04:09:19.326Z,0
2019-03-09T04:10:29.296Z,0
2019-03-09T04:11:39.225Z,0
2019-03-09T04:12:49.162Z,0
2019-03-09T04:13:59.092Z,0
2019-03-09T04:15:09.127Z,0
2019-03-09T04:16:18.803Z,0
2019-03-09T04:17:28.793Z,0
2019-03-09T04:18:38.501Z,0
2019-03-09T04:19:48.547Z,0
2019-03-09T04:20:58.566Z,0
2019-03-09T04:22:08.512Z,0
2019-03-09T04:23:18.452Z,0
2019-03-09T04:24:28.123Z,0
2019-03-09T04:25:38.061Z,0
2019-03-09T04:26:48.042Z,0
2019-03-09T04:27:57.979Z,0
2019-03-09T04:29:07.896Z,0
2019-03-09T04:30:17.845Z,0
2019-03-09T04:31:27.771Z,0
2019-03-09T04:32:37.805Z,0
2019-03-09T04:33:47.725Z,0
2019-03-09T04:34:57.665Z,0
2019-03-09T04:36:07.593Z,0
2019-03-09T04:37:17.507Z,0
2019-03-09T04:38:27.531Z,0
2019-03-09T04:39:37.491Z,0
2019-03-09T04:40:47.404Z,0
2019-03-09T04:41:57.329Z,0
2019-03-09T04:43:07.238Z,0
2019-03-09T04:44:17.153Z,0
2019-03-09T04:45:27.072Z,0
2019-03-09T04:46:36.982Z,0
2019-03-09T04:47:46.890Z,0
2019-03-09T04:48:56.808Z,0
2019-03-09T04:50:06.870Z,0
2019-03-09T04:51:16.788Z,0
2019-03-09T04:52:26.709Z,0
2019-03-09T04:53:36.624Z,0
2019-03-09T04:54:46.543Z,0
2019-03-09T04:55:56.460Z,0
2019-03-09T04:57:06.119Z,0
2019-03-09T04:58:16.029Z,0
2019-03-09T04:59:25.950Z,0
2019-03-09T05:00:35.863Z,0
2019-03-09T05:01:45.878Z,0
2019-03-09T05:02:55.785Z,0
2019-03-09T05:04:05.469Z,0
2019-03-09T05:05:15.462Z,0
2019-03-09T05:06:25.373Z,0
2019-03-09T05:07:35.336Z,0
2019-03-09T05:08:45.260Z,0
2019-03-09T05:09:55.179Z,0
2019-03-09T05:11:05.092Z,0
2019-03-09T05:12:15.002Z,0
2019-03-09T05:13:25.025Z,0
2019-03-09T05:14:34.981Z,0
2019-03-09T05:15:44.919Z,0
2019-03-09T05:16:54.838Z,0
2019-03-09T05:18:04.763Z,0
2019-03-09T05:19:14.773Z,0
2019-03-09T05:20:24.689Z,0
2019-03-09T05:21:34.600Z,0
2019-03-09T05:22:44.519Z,0
2019-03-09T05:23:54.428Z,0
2019-03-09T05:25:04.441Z,0
2019-03-09T05:26:14.361Z,0
2019-03-09T05:27:24.273Z,0
2019-03-09T05:28:34.215Z,0
2019-03-09T05:29:44.131Z,0
2019-03-09T05:30:54.090Z,0
2019-03-09T05:32:04.690Z,0
2019-03-09T05:33:14.673Z,0
2019-03-09T05:34:24.600Z,0
2019-03-09T05:35:34.509Z,0
2019-03-09T05:36:44.521Z,0
2019-03-09T05:37:54.452Z,0
2019-03-09T05:39:04.368Z,0
2019-03-09T05:40:14.332Z,5
2019-03-09T05:41:24.258Z,5
2019-03-09T05:42:34.224Z,5
2019-03-09T05:43:44.142Z,5
2019-03-09T05:44:54.054Z,5
2019-03-09T05:46:03.967Z,10
2019-03-09T05:47:13.895Z,10
2019-03-09T05:48:23.918Z,10
2019-03-09T05:49:33.835Z,10
2019-03-09T05:50:43.759Z,10
2019-03-09T05:51:53.674Z,10
2019-03-09T05:53:03.603Z,10
2019-03-09T05:54:13.563Z,15
2019-03-09T05:55:23.491Z,15
2019-03-09T05:56:33.431Z,15
2019-03-09T05:57:43.376Z,20
2019-03-09T05:58:53.286Z,20
2019-03-09T06:00:03.307Z,20
2019-03-09T06:01:13.219Z,25
2019-03-09T06:02:23.136Z,25
2019-03-09T06:03:33.056Z,25
2019-03-09T06:04:42.964Z,25
2019-03-09T06:05:53.015Z,30
2019-03-09T06:07:02.936Z,30
2019-03-09T06:08:12.857Z,30
2019-03-09T06:09:22.769Z,35
2019-03-09T06:10:32.687Z,35
2019-03-09T06:11:42.908Z,35
2019-03-09T06:12:52.822Z,40
2019-03-09T06:14:02.741Z,40
2019-03-09T06:15:12.454Z,45
2019-03-09T06:16:22.375Z,45
2019-03-09T06:17:32.340Z,45
2019-03-09T06:18:42.264Z,50
2019-03-09T06:19:52.178Z,50
2019-03-09T06:21:02.140Z,55
2019-03-09T06:22:12.084Z,55
2019-03-09T06:23:22.045Z,60
2019-03-09T06:24:31.955Z,60
2019-03-09T06:25:43.499Z,65
2019-03-09T06:26:53.411Z,65
2019-03-09T06:28:03.338Z,65
2019-03-09T06:29:13.350Z,70
2019-03-09T06:30:23.268Z,70
2019-03-09T06:31:33.179Z,70
2019-03-09T06:32:43.095Z,75
2019-03-09T06:33:52.758Z,75
2019-03-09T06:35:02.821Z,75
2019-03-09T06:36:12.741Z,75
2019-03-09T06:37:22.664Z,80
2019-03-09T06:38:32.575Z,80
2019-03-09T06:39:42.249Z,85
2019-03-09T06:40:52.323Z,90
2019-03-09T06:42:01.993Z,90
2019-03-09T06:43:12.092Z,90
2019-03-09T06:44:22.007Z,95
2019-03-09T06:45:31.923Z,95
2019-03-09T06:46:41.970Z,100
2019-03-09T06:47:51.895Z,105
2019-03-09T06:49:01.807Z,105
2019-03-09T06:50:11.721Z,110
2019-03-09T06:51:21.634Z,110
2019-03-09T06:52:31.687Z,115
2019-03-09T06:53:41.598Z,120
2019-03-09T06:54:51.508Z,120
2019-03-09T06:56:01.423Z,125
2019-03-09T06:57:20.597Z,125
2019-03-09T06:58:30.613Z,125
2019-03-09T06:59:40.521Z,125
2019-03-09T07:00:50.438Z,125
2019-03-09T07:02:00.350Z,125
2019-03-09T07:03:10.269Z,130
2019-03-09T07:04:20.284Z,135
2019-03-09T07:05:30.201Z,130
2019-03-09T07:06:40.119Z,130
2019-03-09T07:07:50.029Z,135
2019-03-09T07:08:59.951Z,135
2019-03-09T07:10:09.971Z,140
2019-03-09T07:11:19.889Z,140
2019-03-09T07:12:29.806Z,145
2019-03-09T07:13:39.719Z,145
2019-03-09T07:14:49.668Z,150
2019-03-09T07:15:59.680Z,155
2019-03-09T07:17:09.595Z,160
2019-03-09T07:18:19.534Z,160
2019-03-09T07:19:29.475Z,165
2019-03-09T07:20:39.395Z,165
2019-03-09T07:21:49.406Z,160
2019-03-09T07:22:59.320Z,160
2019-03-09T07:24:09.241Z,160
2019-03-09T07:25:19.199Z,160
2019-03-09T07:26:29.122Z,160
2019-03-09T07:27:38.791Z,155
2019-03-09T07:28:48.704Z,155
2019-03-09T07:29:58.622Z,155
2019-03-09T07:31:08.539Z,155
2019-03-09T07:32:18.447Z,155
2019-03-09T07:33:28.469Z,155
2019-03-09T07:34:38.379Z,160
2019-03-09T07:35:48.290Z,160
2019-03-09T07:36:58.205Z,165
2019-03-09T07:38:08.122Z,170
2019-03-09T07:39:18.086Z,175
2019-03-09T07:40:28.004Z,180
2019-03-09T07:41:37.923Z,185
2019-03-09T07:42:47.833Z,185
2019-03-09T07:43:57.523Z,190
2019-03-09T07:45:07.512Z,190
2019-03-09T07:46:17.427Z,195
2019-03-09T07:47:27.341Z,200
2019-03-09T07:48:37.076Z,205
2019-03-09T07:49:46.998Z,210
2019-03-09T07:50:56.915Z,215
2019-03-09T07:52:06.590Z,220
2019-03-09T07:53:16.504Z,225
2019-03-09T07:54:26.416Z,220
2019-03-09T07:55:36.349Z,220
2019-03-09T07:56:46.059Z,225
2019-03-09T07:57:55.977Z,230
2019-03-09T07:59:05.642Z,230
2019-03-09T08:00:15.562Z,235
2019-03-09T08:01:26.483Z,240
2019-03-09T08:02:36.461Z,245
2019-03-09T08:03:46.378Z,260
2019-03-09T08:04:56.302Z,270
2019-03-09T08:06:06.218Z,270
2019-03-09T08:07:17.292Z,260
2019-03-09T08:08:27.256Z,250
2019-03-09T08:09:37.208Z,240
2019-03-09T08:10:47.129Z,245
2019-03-09T08:11:57.043Z,245
2019-03-09T08:13:06.971Z,235
2019-03-09T08:14:16.942Z,230
2019-03-09T08:15:26.854Z,220
2019-03-09T08:16:45.346Z,215
2019-03-09T08:17:55.916Z,215
2019-03-09T08:19:05.928Z,220
2019-03-09T08:20:15.992Z,220
2019-03-09T08:21:25.930Z,220
2019-03-09T08:22:35.857Z,220
2019-03-09T08:23:45.797Z,215
2019-03-09T08:24:55.734Z,215
2019-03-09T08:26:05.679Z,210
2019-03-09T08:27:15.617Z,210
2019-03-09T08:28:25.999Z,210
2019-03-09T08:29:35.942Z,205
2019-03-09T08:30:45.911Z,200
2019-03-09T08:31:55.869Z,190
2019-03-09T08:33:05.836Z,180
2019-03-09T08:34:15.802Z,170
2019-03-09T08:35:25.770Z,160
2019-03-09T08:36:37.533Z,150
2019-03-09T08:37:47.494Z,150
2019-03-09T08:38:57.472Z,150
2019-03-09T08:40:07.609Z,150
2019-03-09T08:41:17.585Z,150
2019-03-09T08:42:27.580Z,150
2019-03-09T08:43:37.589Z,150
2019-03-09T08:44:47.582Z,155
2019-03-09T08:45:57.529Z,165
2019-03-09T08:47:07.526Z,180
2019-03-09T08:48:17.439Z,195
2019-03-09T08:49:27.592Z,205
2019-03-09T08:50:37.600Z,225
2019-03-09T08:51:47.584Z,235
2019-03-09T08:52:57.598Z,240
2019-03-09T08:54:07.678Z,245
2019-03-09T08:55:20.230Z,245
2019-03-09T08:56:30.233Z,250
2019-03-09T08:57:40.254Z,255
2019-03-09T08:58:50.278Z,265
2019-03-09T09:00:00.419Z,270
2019-03-09T09:01:10.648Z,275
2019-03-09T09:02:20.655Z,280
2019-03-09T09:03:30.572Z,285
2019-03-09T09:04:41.960Z,290
2019-03-09T09:05:51.897Z,295
2019-03-09T09:07:01.821Z,295
2019-03-09T09:08:13.589Z,300
2019-03-09T09:09:23.555Z,305
2019-03-09T09:10:33.583Z,300
2019-03-09T09:11:43.524Z,310
2019-03-09T09:12:55.251Z,315
2019-03-09T09:14:05.174Z,320
2019-03-09T09:15:17.419Z,325
2019-03-09T09:16:27.089Z,330
2019-03-09T09:17:37.011Z,335
2019-03-09T09:18:47.026Z,340
2019-03-09T09:19:56.979Z,345
2019-03-09T09:21:06.894Z,350
2019-03-09T09:22:16.847Z,355
2019-03-09T09:23:26.776Z,355
2019-03-09T09:24:36.692Z,355
2019-03-09T09:25:46.618Z,370
2019-03-09T09:26:56.540Z,370
2019-03-09T09:28:06.483Z,375
2019-03-09T09:29:16.401Z,375
2019-03-09T09:30:26.320Z,375
2019-03-09T09:31:36.242Z,375
2019-03-09T09:32:46.156Z,380
2019-03-09T09:33:58.257Z,380
2019-03-09T09:35:08.398Z,385
2019-03-09T09:36:18.320Z,390
2019-03-09T09:37:28.235Z,400
2019-03-09T09:38:38.147Z,410
2019-03-09T09:39:48.109Z,415
2019-03-09T09:40:58.028Z,415
2019-03-09T09:42:09.007Z,410
2019-03-09T09:43:18.928Z,410
2019-03-09T09:44:28.842Z,410
2019-03-09T09:45:38.768Z,410
2019-03-09T09:46:48.689Z,410
2019-03-09T09:47:58.707Z,415
2019-03-09T09:49:08.432Z,420
2019-03-09T09:50:18.389Z,420
2019-03-09T09:51:28.361Z,425
2019-03-09T09:52:38.273Z,430
2019-03-09T09:53:48.191Z,435
2019-03-09T09:54:58.132Z,435
2019-03-09T09:56:08.102Z,440
2019-03-09T09:57:18.020Z,440
2019-03-09T09:58:27.938Z,440
2019-03-09T09:59:37.861Z,445
2019-03-09T10:00:47.799Z,445
2019-03-09T10:01:57.718Z,450
2019-03-09T10:03:07.636Z,460
2019-03-09T10:04:17.563Z,465
2019-03-09T10:05:27.586Z,470
2019-03-09T10:06:37.517Z,470
2019-03-09T10:07:47.443Z,470
2019-03-09T10:08:57.367Z,465
2019-03-09T10:10:07.428Z,455
2019-03-09T10:11:17.459Z,445
2019-03-09T10:12:27.379Z,430
2019-03-09T10:13:37.295Z,420
2019-03-09T10:14:46.959Z,405
2019-03-09T10:15:56.911Z,400
2019-03-09T10:17:06.675Z,400
2019-03-09T10:18:16.590Z,400
2019-03-09T10:19:26.514Z,400
2019-03-09T10:20:36.430Z,405
2019-03-09T10:21:46.348Z,405
2019-03-09T10:23:06.500Z,400
2019-03-09T10:24:16.420Z,395
2019-03-09T10:25:26.092Z,390
2019-03-09T10:26:36.351Z,385
2019-03-09T10:27:46.311Z,390
2019-03-09T10:28:56.329Z,390
2019-03-09T10:30:06.248Z,390
2019-03-09T10:31:16.161Z,380
2019-03-09T10:32:26.083Z,375
2019-03-09T10:33:36.000Z,365
2019-03-09T10:34:46.028Z,355
2019-03-09T10:35:55.954Z,345
2019-03-09T10:37:05.883Z,340
2019-03-09T10:38:15.802Z,345
2019-03-09T10:39:25.717Z,350
2019-03-09T10:40:35.634Z,360
2019-03-09T10:41:45.556Z,370
2019-03-09T10:42:55.494Z,370
2019-03-09T10:44:05.413Z,375
2019-03-09T10:45:15.330Z,375
2019-03-09T10:46:25.245Z,375
2019-03-09T10:47:35.175Z,370
2019-03-09T10:48:45.099Z,365
2019-03-09T10:49:54.769Z,365
2019-03-09T10:51:04.687Z,375
2019-03-09T10:52:14.722Z,380
2019-03-09T10:53:24.644Z,380
2019-03-09T10:54:43.078Z,380
2019-03-09T10:55:53.003Z,380
2019-03-09T10:57:02.927Z,385
2019-03-09T10:58:12.954Z,385
2019-03-09T10:59:22.876Z,390
2019-03-09T11:00:32.798Z,390
2019-03-09T11:01:42.751Z,390
2019-03-09T11:02:52.666Z,400
2019-03-09T11:04:02.584Z,415
2019-03-09T11:05:12.570Z,435
2019-03-09T11:06:22.487Z,445
2019-03-09T11:07:32.434Z,450
2019-03-09T11:08:42.366Z,460
2019-03-09T11:09:53.869Z,465
2019-03-09T11:11:03.536Z,470
2019-03-09T11:12:13.469Z,460
2019-03-09T11:13:23.386Z,440
2019-03-09T11:14:33.300Z,405
2019-03-09T11:15:45.057Z,375
2019-03-09T11:16:55.019Z,355
2019-03-09T11:18:04.954Z,340
2019-03-09T11:19:14.916Z,330
2019-03-09T11:20:24.901Z,320
2019-03-09T11:21:34.821Z,320
2019-03-09T11:22:44.750Z,315
2019-03-09T11:23:55.352Z,310
2019-03-09T11:25:12.882Z,305
2019-03-09T11:26:22.807Z,305
2019-03-09T11:27:32.824Z,305
2019-03-09T11:28:42.739Z,320
2019-03-09T11:29:52.662Z,325
2019-03-09T11:31:02.580Z,335
2019-03-09T11:32:12.521Z,345
2019-03-09T11:33:22.436Z,350
2019-03-09T11:34:32.353Z,350
2019-03-09T11:35:42.530Z,345
2019-03-09T11:36:52.468Z,335
2019-03-09T11:38:02.394Z,330
2019-03-09T11:39:12.339Z,330
2019-03-09T11:40:22.250Z,325
2019-03-09T11:41:32.172Z,325
2019-03-09T11:42:42.086Z,325
2019-03-09T11:43:52.005Z,330
2019-03-09T11:45:01.918Z,330
2019-03-09T11:46:11.836Z,335
2019-03-09T11:47:21.759Z,340
2019-03-09T11:48:31.702Z,340
2019-03-09T11:49:41.365Z,340
2019-03-09T11:50:51.383Z,345
2019-03-09T11:52:01.044Z,350
2019-03-09T11:53:10.958Z,360
2019-03-09T11:54:20.876Z,365
2019-03-09T11:55:30.787Z,385
2019-03-09T11:56:40.809Z,400
2019-03-09T11:57:50.733Z,415
2019-03-09T11:59:00.657Z,435
2019-03-09T12:00:10.583Z,450
2019-03-09T12:01:20.544Z,475
2019-03-09T12:02:40.777Z,495
2019-03-09T12:03:52.233Z,520
2019-03-09T12:05:02.146Z,535
2019-03-09T12:06:12.066Z,550
2019-03-09T12:07:21.984Z,565
2019-03-09T12:08:31.901Z,570
2019-03-09T12:09:41.814Z,570
2019-03-09T12:10:51.733Z,560
2019-03-09T12:12:01.654Z,560
2019-03-09T12:13:11.672Z,560
2019-03-09T12:14:21.592Z,565
2019-03-09T12:15:31.521Z,560
2019-03-09T12:16:41.441Z,555
2019-03-09T12:17:53.157Z,545
2019-03-09T12:19:03.073Z,535
2019-03-09T12:20:13.010Z,520
2019-03-09T12:21:22.938Z,505
2019-03-09T12:22:32.873Z,490
2019-03-09T12:23:42.790Z,485
2019-03-09T12:24:52.715Z,495
2019-03-09T12:26:02.650Z,510
2019-03-09T12:27:12.570Z,525
2019-03-09T12:28:22.486Z,530
2019-03-09T12:29:32.413Z,530
2019-03-09T12:30:42.437Z,525
2019-03-09T12:31:52.355Z,515
2019-03-09T12:33:02.033Z,490
2019-03-09T12:34:11.953Z,465
2019-03-09T12:35:21.873Z,455
2019-03-09T12:36:31.895Z,450
2019-03-09T12:37:41.908Z,445
2019-03-09T12:38:51.871Z,450
2019-03-09T12:40:01.883Z,460
2019-03-09T12:41:11.562Z,465
2019-03-09T12:42:21.513Z,470
2019-03-09T12:43:31.437Z,475
2019-03-09T12:44:41.370Z,475
2019-03-09T12:45:51.294Z,475
2019-03-09T12:47:01.216Z,470
2019-03-09T12:48:11.163Z,470
2019-03-09T12:49:21.085Z,475
2019-03-09T12:50:31.036Z,475
2019-03-09T12:51:40.951Z,475
2019-03-09T12:52:50.924Z,470
2019-03-09T12:54:00.954Z,470
2019-03-09T12:55:10.627Z,475
2019-03-09T12:56:20.555Z,490
2019-03-09T12:57:30.512Z,505
2019-03-09T12:58:40.438Z,510
2019-03-09T12:59:50.466Z,510
2019-03-09T13:01:00.390Z,490
2019-03-09T13:02:10.313Z,465
2019-03-09T13:03:20.235Z,445
2019-03-09T13:04:30.182Z,420
2019-03-09T13:05:40.110Z,395
2019-03-09T13:06:49.811Z,370
2019-03-09T13:07:59.732Z,355
2019-03-09T13:09:09.659Z,355
2019-03-09T13:10:19.593Z,350
2019-03-09T13:11:29.632Z,360
2019-03-09T13:12:39.566Z,375
2019-03-09T13:13:49.498Z,390
2019-03-09T13:14:59.413Z,400
2019-03-09T13:16:09.084Z,405
2019-03-09T13:17:18.787Z,410
2019-03-09T13:18:28.705Z,415
2019-03-09T13:19:38.638Z,420
2019-03-09T13:20:48.559Z,420
2019-03-09T13:21:58.493Z,420
2019-03-09T13:23:08.412Z,415
2019-03-09T13:24:18.334Z,410
2019-03-09T13:25:28.258Z,405
2019-03-09T13:26:38.191Z,405
2019-03-09T13:27:48.110Z,400
2019-03-09T13:28:58.043Z,400
2019-03-09T13:30:07.976Z,400
2019-03-09T13:31:17.897Z,400
2019-03-09T13:32:27.821Z,395
2019-03-09T13:33:37.742Z,395
2019-03-09T13:34:47.697Z,390
2019-03-09T13:35:57.621Z,385
2019-03-09T13:37:07.619Z,385
2019-03-09T13:38:17.558Z,375
2019-03-09T13:39:27.479Z,370
2019-03-09T13:40:37.405Z,360
2019-03-09T13:41:47.333Z,360
2019-03-09T13:42:57.252Z,355
2019-03-09T13:44:07.184Z,350
2019-03-09T13:45:17.103Z,345
2019-03-09T13:46:27.122Z,335
2019-03-09T13:47:36.794Z,330
2019-03-09T13:48:46.207Z,330
2019-03-09T13:49:56.128Z,335
2019-03-09T13:51:06.046Z,340
2019-03-09T13:52:16.070Z,345
2019-03-09T13:53:25.990Z,355
2019-03-09T13:54:35.916Z,360
2019-03-09T13:55:45.840Z,365
2019-03-09T13:56:55.823Z,370
2019-03-09T13:58:05.767Z,370
2019-03-09T13:59:15.693Z,370
2019-03-09T14:00:25.618Z,370
2019-03-09T14:01:35.537Z,375
2019-03-09T14:02:45.571Z,380
2019-03-09T14:03:55.492Z,385
2019-03-09T14:05:05.461Z,390
2019-03-09T14:06:15.382Z,385
2019-03-09T14:07:25.301Z,380
2019-03-09T14:08:35.219Z,370
2019-03-09T14:09:45.250Z,365
2019-03-09T14:10:55.166Z,360
2019-03-09T14:12:05.083Z,360
2019-03-09T14:13:15.001Z,355
2019-03-09T14:14:24.921Z,355
2019-03-09T14:15:34.895Z,350
2019-03-09T14:16:44.820Z,345
2019-03-09T14:17:54.764Z,345
2019-03-09T14:19:04.695Z,345
2019-03-09T14:20:14.619Z,340
2019-03-09T14:21:24.541Z,335
2019-03-09T14:22:34.463Z,330
2019-03-09T14:23:44.134Z,320
2019-03-09T14:24:54.053Z,315
2019-03-09T14:26:03.977Z,315
2019-03-09T14:27:15.154Z,315
2019-03-09T14:28:25.280Z,315
2019-03-09T14:29:35.200Z,310
2019-03-09T14:30:45.124Z,310
2019-03-09T14:31:55.090Z,310
2019-03-09T14:33:05.005Z,315
2019-03-09T14:34:14.930Z,310
2019-03-09T14:35:24.874Z,310
2019-03-09T14:36:34.794Z,315
2019-03-09T14:37:44.720Z,320
2019-03-09T14:38:54.745Z,325
2019-03-09T14:40:04.677Z,335
2019-03-09T14:41:14.608Z,335
2019-03-09T14:42:24.531Z,340
2019-03-09T14:43:34.450Z,345
2019-03-09T14:44:44.468Z,350
2019-03-09T14:45:54.383Z,360
2019-03-09T14:47:04.301Z,370
2019-03-09T14:48:14.235Z,380
2019-03-09T14:49:24.154Z,385
2019-03-09T14:50:34.179Z,395
2019-03-09T14:51:43.841Z,395
2019-03-09T14:52:53.764Z,395
2019-03-09T14:54:03.689Z,390
2019-03-09T14:55:13.610Z,380
2019-03-09T14:56:23.694Z,370
2019-03-09T14:57:33.617Z,365
2019-03-09T14:58:43.542Z,350
2019-03-09T14:59:55.809Z,340
2019-03-09T15:01:05.728Z,330
2019-03-09T15:02:15.754Z,320
2019-03-09T15:03:25.668Z,310
2019-03-09T15:04:35.585Z,305
2019-03-09T15:05:45.250Z,305
2019-03-09T15:06:55.167Z,300
2019-03-09T15:08:05.193Z,300
2019-03-09T15:09:15.107Z,300
2019-03-09T15:10:25.029Z,295
2019-03-09T15:11:34.943Z,285
2019-03-09T15:12:44.877Z,280
2019-03-09T15:13:58.380Z,270
2019-03-09T15:15:08.296Z,270
2019-03-09T15:16:18.232Z,265
2019-03-09T15:17:28.153Z,260
2019-03-09T15:18:38.071Z,255
2019-03-09T15:19:47.998Z,255
2019-03-09T15:20:57.921Z,250
2019-03-09T15:22:07.864Z,250
2019-03-09T15:23:17.783Z,245
2019-03-09T15:24:27.698Z,240
2019-03-09T15:25:38.841Z,240
2019-03-09T15:26:48.761Z,240
2019-03-09T15:27:58.719Z,240
2019-03-09T15:29:08.634Z,245
2019-03-09T15:30:18.558Z,245
2019-03-09T15:31:28.328Z,250
2019-03-09T15:32:38.244Z,245
2019-03-09T15:33:48.197Z,240
2019-03-09T15:34:58.134Z,240
2019-03-09T15:36:08.057Z,245
2019-03-09T15:37:17.822Z,235
2019-03-09T15:38:27.740Z,235
2019-03-09T15:39:37.655Z,235
2019-03-09T15:40:47.681Z,235
2019-03-09T15:41:57.641Z,230
2019-03-09T15:43:07.675Z,220
2019-03-09T15:44:17.368Z,210
2019-03-09T15:45:27.280Z,205
2019-03-09T15:46:37.099Z,205
2019-03-09T15:47:47.059Z,205
2019-03-09T15:48:56.983Z,200
2019-03-09T15:50:06.900Z,200
2019-03-09T15:51:16.904Z,200
2019-03-09T15:52:26.897Z,190
2019-03-09T15:53:37.089Z,185
2019-03-09T15:54:47.048Z,180
2019-03-09T15:55:56.714Z,180
2019-03-09T15:57:06.376Z,175
2019-03-09T15:58:16.310Z,170
2019-03-09T15:59:26.226Z,165
2019-03-09T16:00:36.145Z,160
2019-03-09T16:01:46.080Z,155
2019-03-09T16:02:56.006Z,150
2019-03-09T16:04:05.423Z,150
2019-03-09T16:05:15.336Z,145
2019-03-09T16:06:26.382Z,140
2019-03-09T16:07:36.304Z,140
2019-03-09T16:08:46.231Z,130
2019-03-09T16:09:56.152Z,125
2019-03-09T16:11:06.080Z,120
2019-03-09T16:12:16.103Z,115
2019-03-09T16:13:26.920Z,115
2019-03-09T16:14:36.851Z,110
2019-03-09T16:15:46.843Z,105
2019-03-09T16:16:56.763Z,100
2019-03-09T16:18:06.698Z,95
2019-03-09T16:19:16.626Z,90
2019-03-09T16:20:26.549Z,90
2019-03-09T16:21:36.470Z,85
2019-03-09T16:22:46.395Z,80
2019-03-09T16:23:56.326Z,75
2019-03-09T16:25:06.241Z,75
2019-03-09T16:26:16.158Z,70
2019-03-09T16:27:26.074Z,70
2019-03-09T16:28:35.984Z,65
2019-03-09T16:29:46.010Z,65
2019-03-09T16:30:55.929Z,65